Thornton, Wisconsin
Current Conditions -  °F | °C
As of 6:55 AM on Friday 31 Oct 2014 (Local Time) from KEZS Reporting Station
Scattered Clouds Scattered Clouds  
Wind Chill: 24°   Ceiling: Unl
Heat Index: 35°   Visibility: 10mi
Dew Point: 23°   Wind: 17mph
Humidity: 62%   Direction: 350°N
Pressure: 30.22"   Gusts: 32mph
Location:  44.7924°N, 88.6722°W
Report Text: KEZS 311155Z AUTO 35015G28KT 10SM SCT035 02/M05 A3022 RMK AO2 T00151051 10041 20015
Loading
Personal Weather Stations






























Interactive Weather Map
Tropical Storm Tracking
New forecast layout! Learn more

10-Day Weather Forecast

Advertisements
Track Severe Weather on mobile